createdAt,value
2022-11-16T00:01:06.854Z,14.02
2022-11-16T00:03:34.016Z,12.82
2022-11-16T00:06:04.047Z,14.13
2022-11-16T00:08:36.518Z,13.55
2022-11-16T00:11:09.210Z,14.18
2022-11-16T00:13:37.050Z,13.68
2022-11-16T00:16:04.928Z,13.90
2022-11-16T00:18:32.385Z,14.32
2022-11-16T00:20:59.538Z,14.75
2022-11-16T00:23:26.489Z,14.75
2022-11-16T00:25:53.329Z,13.70
2022-11-16T00:28:20.068Z,15.45
2022-11-16T00:30:47.014Z,15.88
2022-11-16T00:33:16.410Z,16.35
2022-11-16T00:35:43.138Z,17.27
2022-11-16T00:38:09.885Z,14.70
2022-11-16T00:40:36.696Z,12.75
2022-11-16T00:43:03.390Z,14.02
2022-11-16T00:45:30.221Z,14.60
2022-11-16T00:48:00.448Z,14.27
2022-11-16T00:50:27.539Z,14.73
2022-11-16T00:52:54.554Z,15.95
2022-11-16T00:55:21.348Z,14.13
2022-11-16T00:57:48.196Z,11.80
2022-11-16T01:00:15.519Z,17.15
2022-11-16T01:02:42.407Z,13.68
2022-11-16T01:05:10.132Z,13.18
2022-11-16T01:07:38.810Z,15.18
2022-11-16T01:10:08.301Z,14.80
2022-11-16T01:12:35.226Z,16.48
2022-11-16T01:15:02.198Z,15.73
2022-11-16T01:17:28.986Z,15.43
2022-11-16T01:19:56.046Z,15.07
2022-11-16T01:22:22.939Z,14.95
2022-11-16T01:24:49.739Z,16.27
2022-11-16T01:27:16.462Z,14.90
2022-11-16T01:29:43.297Z,17.80
2022-11-16T01:32:09.966Z,15.75
2022-11-16T01:34:36.776Z,16.23
2022-11-16T01:37:03.435Z,13.00
2022-11-16T01:39:30.165Z,14.77
2022-11-16T01:41:56.889Z,17.70
2022-11-16T01:44:32.986Z,20.33
2022-11-16T01:46:59.967Z,15.00
2022-11-16T01:49:30.730Z,15.43
2022-11-16T01:52:10.734Z,16.17
2022-11-16T01:54:40.424Z,16.33
2022-11-16T01:57:11.857Z,15.40
2022-11-16T01:59:40.405Z,15.07
2022-11-16T02:02:07.184Z,17.67
2022-11-16T02:04:33.890Z,14.82
2022-11-16T02:07:19.253Z,18.73
2022-11-16T02:09:54.463Z,18.73
2022-11-16T02:12:46.103Z,16.48
2022-11-16T02:15:38.132Z,20.90
2022-11-16T02:18:28.578Z,16.40
2022-11-16T02:21:05.738Z,16.95
2022-11-16T02:24:08.122Z,16.65
2022-11-16T02:27:16.178Z,17.52
2022-11-16T02:29:46.090Z,20.80
2022-11-16T02:32:23.300Z,20.42
2022-11-16T02:35:18.959Z,18.73
2022-11-16T02:38:04.030Z,18.77
2022-11-16T02:40:33.226Z,17.00
2022-11-16T02:43:08.533Z,16.25
2022-11-16T02:45:40.382Z,17.15
2022-11-16T02:48:31.279Z,15.10
2022-11-16T02:50:58.404Z,15.02
2022-11-16T02:53:25.729Z,15.43
2022-11-16T02:55:52.481Z,16.25
2022-11-16T02:58:23.687Z,15.23
2022-11-16T03:01:12.316Z,14.57
2022-11-16T03:03:46.286Z,15.02
2022-11-16T03:06:24.721Z,14.05
2022-11-16T03:09:16.330Z,16.92
2022-11-16T03:11:59.305Z,15.57
2022-11-16T03:14:37.793Z,16.10
2022-11-16T03:17:10.011Z,14.80
2022-11-16T03:19:45.305Z,15.65
2022-11-16T03:22:22.932Z,13.95
2022-11-16T03:24:50.339Z,15.45
2022-11-16T03:27:51.480Z,17.48
2022-11-16T03:30:27.642Z,16.48
2022-11-16T03:33:00.135Z,15.50
2022-11-16T03:35:29.128Z,15.23
2022-11-16T03:37:58.269Z,15.93
2022-11-16T03:40:29.064Z,15.50
2022-11-16T03:42:56.421Z,14.77
2022-11-16T03:45:23.123Z,15.18
2022-11-16T03:47:49.792Z,19.48
2022-11-16T03:50:16.490Z,16.88
2022-11-16T03:52:43.512Z,15.23
2022-11-16T03:55:10.178Z,16.77
2022-11-16T03:57:36.919Z,13.70
2022-11-16T04:00:05.814Z,13.48
2022-11-16T04:02:32.545Z,13.38
2022-11-16T04:05:18.027Z,14.88
2022-11-16T04:08:03.505Z,14.02
2022-11-16T04:10:49.100Z,12.30
2022-11-16T04:13:37.104Z,12.23
2022-11-16T04:16:22.652Z,13.18
2022-11-16T04:19:07.849Z,13.18
2022-11-16T04:21:57.869Z,15.35
2022-11-16T04:24:28.330Z,13.27
2022-11-16T04:27:19.178Z,14.05
2022-11-16T04:29:46.379Z,11.50
2022-11-16T04:32:45.883Z,11.50
2022-11-16T04:35:31.309Z,13.02
2022-11-16T04:37:58.787Z,11.85
2022-11-16T04:40:30.240Z,11.18
2022-11-16T04:42:59.330Z,12.52
2022-11-16T04:45:46.387Z,13.27
2022-11-16T04:48:15.020Z,15.25
2022-11-16T04:50:42.498Z,13.40
2022-11-16T04:53:09.556Z,13.63
2022-11-16T04:55:36.368Z,13.68
2022-11-16T04:58:03.649Z,14.15
2022-11-16T05:00:30.411Z,15.90
2022-11-16T05:03:01.234Z,13.65
2022-11-16T05:05:28.704Z,17.08
2022-11-16T05:07:55.633Z,16.17
2022-11-16T05:10:22.579Z,16.45
2022-11-16T05:12:49.222Z,17.67
2022-11-16T05:15:17.657Z,16.60
2022-11-16T05:17:44.371Z,16.77
2022-11-16T05:20:29.997Z,17.70
2022-11-16T05:22:58.121Z,17.13
2022-11-16T05:25:25.231Z,15.60
2022-11-16T05:27:52.028Z,17.48
2022-11-16T05:30:18.785Z,21.38
2022-11-16T05:32:45.522Z,18.63
2022-11-16T05:35:12.178Z,18.52
2022-11-16T05:37:38.961Z,18.77
2022-11-16T05:40:06.370Z,19.77
2022-11-16T05:42:33.021Z,19.48
2022-11-16T05:44:59.685Z,19.60
2022-11-16T05:47:26.343Z,18.90
2022-11-16T05:49:52.976Z,20.27
2022-11-16T05:52:19.937Z,18.08
2022-11-16T05:54:46.676Z,19.27
2022-11-16T05:57:13.342Z,19.85
2022-11-16T05:59:40.042Z,22.70
2022-11-16T06:02:06.740Z,18.20
2022-11-16T06:04:34.050Z,19.63
2022-11-16T06:07:00.798Z,18.02
2022-11-16T06:09:27.562Z,19.65
2022-11-16T06:11:54.635Z,19.08
2022-11-16T06:14:21.324Z,21.15
2022-11-16T06:16:48.000Z,23.35
2022-11-16T06:19:14.686Z,17.98
2022-11-16T06:21:41.427Z,18.98
2022-11-16T06:24:09.419Z,20.23
2022-11-16T06:26:36.923Z,19.15
2022-11-16T06:29:04.095Z,19.13
2022-11-16T06:31:31.184Z,18.65
2022-11-16T06:33:58.103Z,19.83
2022-11-16T06:36:24.901Z,20.65
2022-11-16T06:38:51.605Z,19.80
2022-11-16T06:41:18.521Z,19.35
2022-11-16T06:43:45.292Z,21.23
2022-11-16T06:46:12.088Z,20.42
2022-11-16T06:48:38.893Z,20.45
2022-11-16T06:51:05.841Z,18.98
2022-11-16T06:53:32.513Z,18.63
2022-11-16T06:56:04.690Z,19.25
2022-11-16T06:58:32.267Z,20.48
2022-11-16T07:01:07.000Z,20.00
2022-11-16T07:03:33.681Z,20.33
2022-11-16T07:06:04.620Z,20.42
2022-11-16T07:08:31.599Z,19.95
2022-11-16T07:11:04.314Z,19.33
2022-11-16T07:13:32.927Z,21.40
2022-11-16T07:16:07.849Z,25.25
2022-11-16T07:18:37.023Z,30.58
2022-11-16T07:21:12.509Z,23.05
2022-11-16T07:23:39.859Z,23.52
2022-11-16T07:26:08.156Z,18.02
2022-11-16T07:28:35.066Z,19.85
2022-11-16T07:31:10.919Z,17.95
2022-11-16T07:33:38.028Z,21.20
2022-11-16T07:36:13.490Z,19.33
2022-11-16T07:38:40.585Z,19.52
2022-11-16T07:41:11.370Z,18.30
2022-11-16T07:43:39.860Z,19.15
2022-11-16T07:48:59.396Z,18.70
2022-11-16T07:51:26.094Z,19.88
2022-11-16T07:53:55.845Z,17.65
2022-11-16T07:56:22.783Z,18.35
2022-11-16T07:58:50.258Z,17.98
2022-11-16T08:01:18.372Z,19.10
2022-11-16T08:03:46.156Z,17.30
2022-11-16T08:06:16.912Z,17.75
2022-11-16T08:08:44.260Z,16.02
2022-11-16T08:11:12.591Z,20.48
2022-11-16T08:13:41.025Z,18.75
2022-11-16T08:16:13.895Z,17.50
2022-11-16T08:18:41.849Z,18.20
2022-11-16T08:21:11.280Z,19.23
2022-11-16T08:23:40.320Z,21.27
2022-11-16T08:26:14.352Z,18.88
2022-11-16T08:28:43.493Z,19.98
2022-11-16T08:31:13.519Z,20.70
2022-11-16T08:33:40.491Z,19.33
2022-11-16T08:36:13.791Z,18.77
2022-11-16T08:38:41.039Z,18.73
2022-11-16T08:41:08.259Z,20.00
2022-11-16T08:43:35.957Z,16.60
2022-11-16T08:46:03.243Z,20.48
2022-11-16T08:48:30.026Z,18.35
2022-11-16T08:51:20.488Z,18.00
2022-11-16T08:53:49.080Z,17.83
2022-11-16T08:56:18.264Z,19.88
2022-11-16T08:58:47.102Z,16.52
2022-11-16T09:01:19.502Z,18.75
2022-11-16T09:03:46.558Z,16.55
2022-11-16T09:06:14.045Z,16.17
2022-11-16T09:08:42.911Z,14.90
2022-11-16T09:11:13.096Z,13.70
2022-11-16T09:13:39.931Z,13.30
2022-11-16T09:16:07.062Z,12.50
2022-11-16T09:18:34.170Z,15.02
2022-11-16T09:21:03.696Z,14.18
2022-11-16T09:23:30.572Z,15.75
2022-11-16T09:26:04.401Z,16.92
2022-11-16T09:28:32.083Z,15.25
2022-11-16T09:31:02.307Z,18.83
2022-11-16T09:33:31.192Z,14.77
2022-11-16T09:36:07.169Z,13.20
2022-11-16T09:39:13.911Z,14.55
2022-11-16T09:41:59.805Z,13.05
2022-11-16T09:44:53.152Z,12.02
2022-11-16T09:47:23.920Z,12.50
2022-11-16T09:50:01.662Z,13.18
2022-11-16T09:52:43.276Z,13.07
2022-11-16T09:55:28.057Z,12.10
2022-11-16T10:00:26.088Z,10.20
2022-11-16T10:03:13.517Z,10.57
2022-11-16T10:06:03.281Z,9.27
2022-11-16T10:08:51.531Z,7.93
2022-11-16T10:11:48.980Z,8.85
2022-11-16T10:14:40.757Z,9.23
2022-11-16T10:17:31.043Z,6.40
2022-11-16T10:20:35.352Z,7.72
2022-11-16T10:23:19.781Z,9.57
2022-11-16T10:25:53.480Z,9.95
2022-11-16T10:28:58.947Z,9.20
2022-11-16T10:31:32.544Z,8.95
2022-11-16T10:34:01.743Z,8.23
2022-11-16T10:36:31.195Z,5.85
2022-11-16T10:39:00.284Z,5.72
2022-11-16T10:41:42.545Z,5.60
2022-11-16T10:44:19.495Z,3.25
2022-11-16T10:47:00.565Z,2.85
2022-11-16T10:49:50.309Z,5.40
2022-11-16T10:52:17.026Z,4.53
2022-11-16T10:54:44.580Z,3.58
2022-11-16T10:57:14.123Z,3.42
2022-11-16T10:59:45.192Z,4.85
2022-11-16T11:02:35.934Z,2.15
2022-11-16T11:05:16.255Z,3.50
2022-11-16T11:07:49.243Z,4.43
2022-11-16T11:10:42.778Z,5.82
2022-11-16T11:13:25.037Z,4.93
2022-11-16T11:15:51.987Z,6.20
2022-11-16T11:18:25.999Z,3.55
2022-11-16T11:21:20.970Z,3.30
2022-11-16T11:23:53.275Z,2.65
2022-11-16T11:26:34.679Z,2.20
2022-11-16T11:29:25.025Z,3.55
2022-11-16T11:32:01.252Z,2.70
2022-11-16T11:34:30.439Z,4.78
2022-11-16T11:37:01.399Z,3.65
2022-11-16T11:39:36.851Z,3.83
2022-11-16T11:42:20.760Z,2.85
2022-11-16T11:44:57.558Z,4.22
2022-11-16T11:48:02.181Z,4.05
2022-11-16T11:50:44.538Z,4.40
2022-11-16T11:53:23.319Z,2.97
2022-11-16T11:55:57.085Z,2.90
2022-11-16T11:58:29.574Z,3.40
2022-11-16T12:01:25.688Z,4.40
2022-11-16T12:03:55.596Z,3.85
2022-11-16T12:06:38.687Z,3.35
2022-11-16T12:09:07.855Z,3.72
2022-11-16T12:11:40.634Z,3.70
2022-11-16T12:14:29.253Z,2.20
2022-11-16T12:17:25.590Z,3.20
2022-11-16T12:19:59.497Z,3.05
2022-11-16T12:22:46.412Z,2.95
2022-11-16T12:25:26.471Z,3.70
2022-11-16T12:28:30.823Z,3.17
2022-11-16T12:31:28.525Z,1.55
2022-11-16T12:34:05.360Z,5.78
2022-11-16T12:36:49.335Z,3.60
2022-11-16T12:39:31.010Z,4.13
2022-11-16T12:42:34.623Z,3.75
2022-11-16T12:45:27.626Z,4.35
2022-11-16T12:48:23.923Z,3.28
2022-11-16T12:50:56.629Z,2.55
2022-11-16T12:53:52.550Z,1.83
2022-11-16T12:56:49.101Z,3.53
2022-11-16T12:59:35.852Z,4.53
2022-11-16T13:02:32.864Z,5.25
2022-11-16T13:05:21.735Z,3.53
2022-11-16T13:07:53.524Z,1.75
2022-11-16T13:10:24.708Z,2.47
2022-11-16T13:13:09.034Z,2.75
2022-11-16T13:15:43.281Z,4.03
2022-11-16T13:18:16.387Z,0.98
2022-11-16T13:20:56.946Z,3.60
2022-11-16T13:23:51.715Z,2.85
2022-11-16T13:26:40.750Z,4.55
2022-11-16T13:29:32.267Z,2.17
2022-11-16T13:32:35.052Z,1.80
2022-11-16T13:35:05.340Z,3.40
2022-11-16T13:37:38.181Z,1.90
2022-11-16T13:40:05.145Z,2.63
2022-11-16T13:42:38.921Z,4.10
2022-11-16T13:45:26.026Z,4.78
2022-11-16T13:47:58.131Z,5.22
2022-11-16T13:50:37.854Z,6.80
2022-11-16T13:56:07.094Z,5.38
2022-11-16T13:58:37.121Z,6.15
2022-11-16T14:01:06.137Z,4.50
2022-11-16T14:03:41.471Z,7.40
2022-11-16T14:06:20.295Z,4.97
2022-11-16T14:08:51.906Z,3.80
2022-11-16T14:11:38.793Z,5.82
2022-11-16T14:14:12.892Z,7.70
2022-11-16T14:16:48.327Z,7.50
2022-11-16T14:19:44.360Z,4.82
2022-11-16T14:22:28.555Z,2.97
2022-11-16T14:25:02.566Z,6.75
2022-11-16T14:27:48.104Z,2.45
2022-11-16T14:30:24.763Z,4.82
2022-11-16T14:32:54.785Z,4.80
2022-11-16T14:35:35.190Z,6.63
2022-11-16T14:38:07.136Z,5.13
2022-11-16T14:40:43.355Z,4.85
2022-11-16T14:43:21.810Z,5.35
2022-11-16T14:45:54.884Z,3.72
2022-11-16T14:48:26.009Z,4.63
2022-11-16T14:51:09.936Z,2.38
2022-11-16T14:53:40.625Z,6.05
2022-11-16T14:56:13.055Z,4.78
2022-11-16T14:58:40.012Z,5.60
2022-11-16T15:01:12.692Z,3.53
2022-11-16T15:03:48.432Z,3.85
2022-11-16T15:06:16.420Z,3.90
2022-11-16T15:08:48.900Z,5.20
2022-11-16T15:11:52.707Z,6.75
2022-11-16T15:14:36.624Z,3.10
2022-11-16T15:17:03.592Z,2.85
2022-11-16T15:19:32.042Z,6.32
2022-11-16T15:22:03.345Z,6.35
2022-11-16T15:24:32.587Z,3.70
2022-11-16T15:27:36.599Z,5.20
2022-11-16T15:30:31.147Z,4.47
2022-11-16T15:32:58.044Z,3.10
2022-11-16T15:35:30.992Z,5.25
2022-11-16T15:38:25.749Z,3.42
2022-11-16T15:41:18.683Z,4.20
2022-11-16T15:44:14.460Z,5.07
2022-11-16T15:46:42.379Z,3.30
2022-11-16T15:49:27.900Z,2.90
2022-11-16T15:51:54.616Z,2.83
2022-11-16T15:54:27.395Z,4.82
2022-11-16T15:57:07.827Z,11.27
2022-11-16T15:59:37.033Z,4.18
2022-11-16T16:02:04.357Z,4.57
2022-11-16T16:04:31.276Z,3.55
2022-11-16T16:07:00.105Z,4.57
2022-11-16T16:09:34.738Z,4.90
2022-11-16T16:12:21.495Z,3.67
2022-11-16T16:14:49.907Z,9.18
2022-11-16T16:17:28.357Z,4.22
2022-11-16T16:19:59.109Z,7.43
2022-11-16T16:22:30.572Z,7.43
2022-11-16T16:24:57.664Z,7.18
2022-11-16T16:27:26.558Z,7.22
2022-11-16T16:29:55.237Z,8.48
2022-11-16T16:32:32.061Z,7.20
2022-11-16T16:35:03.930Z,6.97
2022-11-16T16:37:32.371Z,9.52
2022-11-16T16:39:59.723Z,6.55
2022-11-16T16:42:26.491Z,5.68
2022-11-16T16:44:53.583Z,5.93
2022-11-16T16:47:20.976Z,5.72
2022-11-16T16:49:50.659Z,6.95
2022-11-16T16:52:17.860Z,8.23
2022-11-16T16:54:44.964Z,5.93
2022-11-16T16:57:20.658Z,7.28
2022-11-16T16:59:48.438Z,5.65
2022-11-16T17:02:16.332Z,5.88
2022-11-16T17:04:49.354Z,6.72
2022-11-16T17:07:16.432Z,9.98
2022-11-16T17:09:43.242Z,7.35
2022-11-16T17:12:13.192Z,6.30
2022-11-16T17:14:39.886Z,7.38
2022-11-16T17:17:06.609Z,6.32
2022-11-16T17:19:33.328Z,8.82
2022-11-16T17:22:00.275Z,5.93
2022-11-16T17:24:26.956Z,5.78
2022-11-16T17:26:53.883Z,8.25
2022-11-16T17:29:20.534Z,5.30
2022-11-16T17:31:48.064Z,7.93
2022-11-16T17:34:14.915Z,4.68
2022-11-16T17:36:42.703Z,4.53
2022-11-16T17:39:09.464Z,4.32
2022-11-16T17:41:36.510Z,3.35
2022-11-16T17:44:04.273Z,5.90
2022-11-16T17:46:31.088Z,4.95
2022-11-16T17:48:57.756Z,3.63
2022-11-16T17:51:25.615Z,4.53
2022-11-16T17:53:52.837Z,6.18
2022-11-16T17:56:22.048Z,7.18
2022-11-16T17:58:50.208Z,4.43
2022-11-16T18:01:17.233Z,3.55
2022-11-16T18:03:44.348Z,5.13
2022-11-16T18:06:13.994Z,6.55
2022-11-16T18:08:41.798Z,5.25
2022-11-16T18:11:09.951Z,5.75
2022-11-16T18:13:37.361Z,5.55
2022-11-16T18:16:06.269Z,7.22
2022-11-16T18:18:34.208Z,5.57
2022-11-16T18:21:01.568Z,6.43
2022-11-16T18:23:28.947Z,7.63
2022-11-16T18:25:56.160Z,4.78
2022-11-16T18:28:23.597Z,4.78
2022-11-16T18:30:50.388Z,3.38
2022-11-16T18:33:17.324Z,3.78
2022-11-16T18:35:44.372Z,4.53
2022-11-16T18:38:13.098Z,4.55
2022-11-16T18:40:40.785Z,3.40
2022-11-16T18:43:12.997Z,5.32
2022-11-16T18:45:39.702Z,7.00
2022-11-16T18:48:06.983Z,3.10
2022-11-16T18:50:33.732Z,4.05
2022-11-16T18:53:00.392Z,4.85
2022-11-16T18:55:27.034Z,5.38
2022-11-16T18:57:53.669Z,4.63
2022-11-16T19:00:20.744Z,4.88
2022-11-16T19:02:47.399Z,5.82
2022-11-16T19:05:14.095Z,3.05
2022-11-16T19:07:40.958Z,4.05
2022-11-16T19:10:08.429Z,3.50
2022-11-16T19:12:35.091Z,7.80
2022-11-16T19:15:01.792Z,7.38
2022-11-16T19:17:28.496Z,4.30
2022-11-16T19:19:55.159Z,6.30
2022-11-16T19:22:21.809Z,4.28
2022-11-16T19:24:48.491Z,4.82
2022-11-16T19:27:16.616Z,5.47
2022-11-16T19:29:43.478Z,5.75
2022-11-16T19:32:10.148Z,8.75
2022-11-16T19:34:36.803Z,9.23
2022-11-16T19:37:03.693Z,10.88
2022-11-16T19:39:30.394Z,11.02
2022-11-16T19:41:57.071Z,10.88
2022-11-16T19:44:24.126Z,6.80
2022-11-16T19:46:53.335Z,6.15
2022-11-16T19:49:21.757Z,4.82
2022-11-16T19:51:49.345Z,10.70
2022-11-16T19:54:16.032Z,7.88
2022-11-16T19:56:43.422Z,7.88
2022-11-16T19:59:10.467Z,4.93
2022-11-16T20:01:37.132Z,7.40
2022-11-16T20:04:04.552Z,6.78
2022-11-16T20:06:33.603Z,7.30
2022-11-16T20:09:04.105Z,6.75
2022-11-16T20:11:34.047Z,7.22
2022-11-16T20:14:01.760Z,7.57
2022-11-16T20:16:36.983Z,10.30
2022-11-16T20:19:05.314Z,12.80
2022-11-16T20:21:34.511Z,10.32
2022-11-16T20:24:06.467Z,12.10
2022-11-16T20:26:34.705Z,10.43
2022-11-16T20:29:01.490Z,10.23
2022-11-16T20:31:33.655Z,13.52
2022-11-16T20:34:03.086Z,9.13
2022-11-16T20:36:31.397Z,7.43
2022-11-16T20:38:59.017Z,9.75
2022-11-16T20:41:30.691Z,7.85
2022-11-16T20:43:59.093Z,6.68
2022-11-16T20:46:28.442Z,7.32
2022-11-16T20:48:57.027Z,9.23
2022-11-16T20:51:23.931Z,10.20
2022-11-16T20:53:50.856Z,8.88
2022-11-16T20:56:19.239Z,7.25
2022-11-16T20:58:46.722Z,7.47
2022-11-16T21:01:33.603Z,9.23
2022-11-16T21:04:05.409Z,10.55
2022-11-16T21:06:33.172Z,13.00
2022-11-16T21:09:00.306Z,17.35
2022-11-16T21:11:29.935Z,20.20
2022-11-16T21:14:15.274Z,30.45
2022-11-16T21:16:41.930Z,28.38
2022-11-16T21:19:08.933Z,27.17
2022-11-16T21:21:35.737Z,22.95
2022-11-16T21:24:02.511Z,18.75
2022-11-16T21:26:31.170Z,18.70
2022-11-16T21:28:59.246Z,14.38
2022-11-16T21:31:31.709Z,15.25
2022-11-16T21:34:02.278Z,19.80
2022-11-16T21:36:30.898Z,22.95
2022-11-16T21:39:00.889Z,19.00
2022-11-16T21:41:27.679Z,21.67
2022-11-16T21:43:54.514Z,21.80
2022-11-16T21:46:24.620Z,21.60
2022-11-16T21:48:52.780Z,15.20
2022-11-16T21:51:21.675Z,18.27
2022-11-16T21:53:48.812Z,20.38
2022-11-16T21:56:17.590Z,14.45
2022-11-16T21:58:45.192Z,13.35
2022-11-16T22:01:12.893Z,12.88
2022-11-16T22:03:40.276Z,12.25
2022-11-16T22:06:30.691Z,9.70
2022-11-16T22:08:57.370Z,13.45
2022-11-16T22:11:24.109Z,14.13
2022-11-16T22:13:50.863Z,12.60
2022-11-16T22:16:21.139Z,9.00
2022-11-16T22:18:47.931Z,10.45
2022-11-16T22:21:14.636Z,12.82
2022-11-16T22:23:41.704Z,14.90
2022-11-16T22:26:11.610Z,20.75
2022-11-16T22:28:39.411Z,19.77
2022-11-16T22:31:14.439Z,16.27
2022-11-16T22:33:41.613Z,23.10
2022-11-16T22:36:10.534Z,24.20
2022-11-16T22:38:37.944Z,22.30
2022-11-16T22:41:04.913Z,20.58
2022-11-16T22:43:32.610Z,22.85
2022-11-16T22:46:04.458Z,11.23
2022-11-16T22:48:36.622Z,12.43
2022-11-16T22:51:10.883Z,11.20
2022-11-16T22:53:38.085Z,14.93
2022-11-16T22:56:07.191Z,15.57
2022-11-16T22:58:34.935Z,14.60
2022-11-16T23:01:01.784Z,17.05
2022-11-16T23:03:29.028Z,15.95
2022-11-16T23:05:55.778Z,11.52
2022-11-16T23:08:25.028Z,13.90
2022-11-16T23:11:23.589Z,13.70
2022-11-16T23:14:09.578Z,14.85
2022-11-16T23:16:36.500Z,17.50
2022-11-16T23:19:03.516Z,23.20
2022-11-16T23:21:48.920Z,21.33
2022-11-16T23:24:34.181Z,19.40
2022-11-16T23:27:22.963Z,29.58
2022-11-16T23:29:49.905Z,21.75
2022-11-16T23:32:16.580Z,18.38
2022-11-16T23:34:43.274Z,20.33
2022-11-16T23:37:10.188Z,22.48
2022-11-16T23:39:36.959Z,20.23
2022-11-16T23:42:22.434Z,19.42
2022-11-16T23:44:49.092Z,15.75
2022-11-16T23:47:15.908Z,18.48
2022-11-16T23:49:42.587Z,19.00
2022-11-16T23:52:09.316Z,17.98
2022-11-16T23:54:36.039Z,14.60
2022-11-16T23:57:02.752Z,10.20
2022-11-16T23:59:29.434Z,10.82
